createdAt,value
2019-02-28T00:09:29.068Z,60410.08
2019-02-28T00:11:57.463Z,60390.77
2019-02-28T00:14:27.742Z,60409.07
2019-02-28T00:16:56.408Z,60393.82
2019-02-28T00:19:25.043Z,60393.82
2019-02-28T00:21:53.453Z,60393.82
2019-02-28T00:24:21.840Z,60393.82
2019-02-28T00:26:50.243Z,60395.86
2019-02-28T00:29:18.640Z,60421.26
2019-02-28T00:31:50.034Z,60421.26
2019-02-28T00:34:17.372Z,60421.26
2019-02-28T00:36:45.776Z,60414.14
2019-02-28T00:39:14.167Z,60409.07
2019-02-28T00:41:44.488Z,60429.39
2019-02-28T00:44:12.677Z,60418.21
2019-02-28T00:46:45.171Z,60418.21
2019-02-28T00:49:11.281Z,60410.08
2019-02-28T00:51:39.740Z,60392.80
2019-02-28T00:54:08.854Z,60394.84
2019-02-28T00:56:37.827Z,60408.05
2019-02-28T00:59:06.206Z,60407.03
2019-02-28T01:01:34.830Z,60389.76
2019-02-28T01:04:03.216Z,60450.73
2019-02-28T01:06:31.612Z,60400.93
2019-02-28T01:09:00.005Z,60422.27
2019-02-28T01:11:28.404Z,60422.27
2019-02-28T01:13:58.059Z,60416.18
2019-02-28T01:16:27.134Z,60416.18
2019-02-28T01:18:55.549Z,60414.14
2019-02-28T01:21:24.588Z,60391.79
2019-02-28T01:23:52.906Z,60397.89
2019-02-28T01:26:21.304Z,60421.26
2019-02-28T01:28:49.762Z,60389.76
2019-02-28T01:31:18.154Z,60432.44
2019-02-28T01:33:46.782Z,60409.07
2019-02-28T01:36:15.637Z,60414.14
2019-02-28T01:38:44.651Z,60408.05
2019-02-28T01:41:13.255Z,60445.65
2019-02-28T01:43:41.658Z,60423.29
2019-02-28T01:46:10.041Z,60414.14
2019-02-28T01:48:38.445Z,60412.11
2019-02-28T01:51:06.837Z,60443.61
2019-02-28T01:53:35.252Z,60415.16
2019-02-28T01:56:03.648Z,60408.05
2019-02-28T01:58:32.036Z,60410.08
2019-02-28T02:01:00.436Z,60433.45
2019-02-28T02:03:28.819Z,60419.23
2019-02-28T02:05:57.237Z,60401.95
2019-02-28T02:08:25.626Z,60399.92
2019-02-28T02:10:55.861Z,60421.26
2019-02-28T02:13:24.754Z,60428.37
2019-02-28T02:15:53.142Z,60410.08
2019-02-28T02:18:21.547Z,60425.32
2019-02-28T02:20:49.940Z,60412.11
2019-02-28T02:23:18.931Z,60412.11
2019-02-28T02:25:47.408Z,60425.32
2019-02-28T02:28:15.791Z,60406.02
2019-02-28T02:30:50.479Z,60421.26
2019-02-28T02:33:15.579Z,60412.11
2019-02-28T02:35:44.234Z,60410.08
2019-02-28T02:38:12.596Z,60409.07
2019-02-28T02:40:40.994Z,60441.58
2019-02-28T02:43:09.469Z,60425.32
2019-02-28T02:45:41.876Z,60414.14
2019-02-28T02:48:08.189Z,60443.61
2019-02-28T02:50:36.842Z,60431.42
2019-02-28T02:53:06.563Z,60413.13
2019-02-28T02:55:35.057Z,60422.27
2019-02-28T02:58:03.684Z,60432.44
2019-02-28T03:00:32.070Z,60426.34
2019-02-28T03:03:00.740Z,60418.21
2019-02-28T03:05:34.983Z,60418.21
2019-02-28T03:07:59.872Z,60428.37
2019-02-28T03:10:29.435Z,60410.08
2019-02-28T03:12:57.833Z,60421.26
2019-02-28T03:15:27.312Z,60421.26
2019-02-28T03:17:56.095Z,60440.57
2019-02-28T03:20:24.491Z,60440.57
2019-02-28T03:22:52.895Z,60420.24
2019-02-28T03:25:27.700Z,60428.37
2019-02-28T03:27:56.450Z,60416.18
2019-02-28T03:30:29.255Z,60428.37
2019-02-28T03:32:52.110Z,60432.44
2019-02-28T03:35:20.860Z,60457.84
2019-02-28T03:37:49.318Z,60427.36
2019-02-28T03:40:17.794Z,60376.55
2019-02-28T03:42:46.178Z,60430.40
2019-02-28T03:45:16.315Z,60405.00
2019-02-28T03:47:44.698Z,60437.52
2019-02-28T03:50:13.778Z,60430.40
2019-02-28T03:52:44.310Z,60432.44
2019-02-28T03:55:13.906Z,60406.02
2019-02-28T03:57:42.336Z,60436.50
2019-02-28T04:00:16.589Z,60434.47
2019-02-28T04:02:45.180Z,60400.93
2019-02-28T04:05:13.583Z,60423.29
2019-02-28T04:07:41.961Z,60416.18
2019-02-28T04:10:16.843Z,60435.48
2019-02-28T04:12:45.929Z,60427.36
2019-02-28T04:15:15.289Z,60422.27
2019-02-28T04:17:43.693Z,60405.00
2019-02-28T04:20:12.109Z,60441.58
2019-02-28T04:22:40.762Z,60449.71
2019-02-28T04:25:10.909Z,60433.45
2019-02-28T04:27:40.404Z,60423.29
2019-02-28T04:30:13.308Z,60444.63
2019-02-28T04:32:42.035Z,60411.10
2019-02-28T04:35:11.059Z,60431.42
2019-02-28T04:37:44.926Z,60456.82
2019-02-28T04:40:11.541Z,60429.39
2019-02-28T04:42:40.493Z,60442.60
2019-02-28T04:45:12.024Z,60428.37
2019-02-28T04:47:41.566Z,60432.44
2019-02-28T04:50:11.866Z,60420.24
2019-02-28T04:52:46.493Z,60439.55
2019-02-28T04:55:11.414Z,60437.52
2019-02-28T04:57:39.796Z,60394.84
2019-02-28T05:00:13.379Z,60462.92
2019-02-28T05:02:41.959Z,60427.36
2019-02-28T05:05:12.766Z,60443.61
2019-02-28T05:07:41.474Z,60415.16
2019-02-28T05:10:11.344Z,60411.10
2019-02-28T05:12:41.033Z,60453.78
2019-02-28T05:15:11.821Z,60442.60
2019-02-28T05:17:40.310Z,60421.26
2019-02-28T05:20:10.821Z,60449.71
2019-02-28T05:22:40.465Z,60437.52
2019-02-28T05:25:10.187Z,60478.16
2019-02-28T05:27:38.584Z,60449.71
2019-02-28T05:30:18.037Z,60416.18
2019-02-28T05:32:44.835Z,60439.55
2019-02-28T05:35:13.620Z,60420.24
2019-02-28T05:37:46.714Z,60447.68
2019-02-28T05:40:15.094Z,60448.70
2019-02-28T05:42:43.562Z,60424.31
2019-02-28T05:45:14.927Z,60443.61
2019-02-28T05:47:46.653Z,60451.75
2019-02-28T05:50:16.795Z,60433.45
2019-02-28T05:52:43.489Z,60470.04
2019-02-28T05:55:11.972Z,60432.44
2019-02-28T05:57:43.431Z,60463.94
2019-02-28T06:00:16.622Z,60454.79
2019-02-28T06:02:45.022Z,60419.23
2019-02-28T06:05:13.743Z,60439.55
2019-02-28T06:07:42.519Z,60444.63
2019-02-28T06:10:13.486Z,60432.44
2019-02-28T06:12:43.923Z,60436.50
2019-02-28T06:15:16.307Z,60441.58
2019-02-28T06:17:44.726Z,60439.55
2019-02-28T06:20:16.339Z,60432.44
2019-02-28T06:22:44.358Z,60447.68
2019-02-28T06:25:22.611Z,60447.68
2019-02-28T06:27:49.129Z,60448.70
2019-02-28T06:30:17.993Z,60444.63
2019-02-28T06:32:46.472Z,60426.34
2019-02-28T06:35:17.668Z,60463.94
2019-02-28T06:37:45.438Z,60436.50
2019-02-28T06:40:17.350Z,60458.86
2019-02-28T06:42:46.729Z,60445.65
2019-02-28T06:45:17.627Z,60425.32
2019-02-28T06:47:49.629Z,60431.42
2019-02-28T06:50:17.163Z,60429.39
2019-02-28T06:52:45.574Z,60444.63
2019-02-28T06:55:18.800Z,60445.65
2019-02-28T06:57:47.298Z,60462.92
2019-02-28T07:00:16.792Z,60456.82
2019-02-28T07:02:45.187Z,60447.68
2019-02-28T07:05:13.594Z,60452.76
2019-02-28T07:07:42.000Z,60445.65
2019-02-28T07:10:15.357Z,60437.52
2019-02-28T07:12:43.991Z,60469.02
2019-02-28T07:15:13.134Z,60446.66
2019-02-28T07:17:42.719Z,60432.44
2019-02-28T07:20:19.103Z,60453.78
2019-02-28T07:22:47.575Z,60453.78
2019-02-28T07:25:16.205Z,60433.45
2019-02-28T07:27:44.921Z,60460.89
2019-02-28T07:30:21.320Z,60413.13
2019-02-28T07:32:49.811Z,60443.61
2019-02-28T07:35:18.195Z,60433.45
2019-02-28T07:37:46.952Z,60440.57
2019-02-28T07:40:19.145Z,60428.37
2019-02-28T07:42:47.554Z,60450.73
2019-02-28T07:45:16.508Z,60420.24
2019-02-28T07:47:45.160Z,60427.36
2019-02-28T07:50:15.058Z,60435.48
2019-02-28T07:52:43.456Z,60444.63
2019-02-28T07:55:16.192Z,60436.50
2019-02-28T07:57:44.646Z,60438.53
2019-02-28T08:00:18.925Z,60421.26
2019-02-28T08:02:47.589Z,60422.27
2019-02-28T08:05:16.307Z,60451.75
2019-02-28T08:07:50.484Z,60412.11
2019-02-28T08:10:18.082Z,60429.39
2019-02-28T08:12:46.769Z,60427.36
2019-02-28T08:15:22.310Z,60406.02
2019-02-28T08:17:51.124Z,60471.05
2019-02-28T08:20:20.645Z,60424.31
2019-02-28T08:22:49.221Z,60434.47
2019-02-28T08:25:17.639Z,60440.57
2019-02-28T08:27:46.366Z,60398.90
2019-02-28T08:30:20.751Z,60398.90
2019-02-28T08:32:49.805Z,60420.24
2019-02-28T08:35:18.210Z,60446.66
2019-02-28T08:37:46.958Z,60405.00
2019-02-28T08:40:18.132Z,60443.61
2019-02-28T08:42:46.711Z,60434.47
2019-02-28T08:45:18.242Z,60434.47
2019-02-28T08:47:46.638Z,60412.11
2019-02-28T08:50:20.635Z,60401.95
2019-02-28T08:52:51.208Z,60401.95
2019-02-28T08:55:28.139Z,60399.92
2019-02-28T08:57:55.719Z,60426.34
2019-02-28T09:00:22.207Z,60419.23
2019-02-28T09:02:52.896Z,60407.03
2019-02-28T09:05:25.502Z,60439.55
2019-02-28T09:07:52.071Z,60409.07
2019-02-28T09:10:22.795Z,60423.29
2019-02-28T09:12:51.245Z,60423.29
2019-02-28T09:15:20.882Z,60410.08
2019-02-28T09:17:49.988Z,60410.08
2019-02-28T09:20:18.567Z,60400.93
2019-02-28T09:22:46.964Z,60425.32
2019-02-28T09:25:22.096Z,60405.00
2019-02-28T09:27:50.255Z,60394.84
2019-02-28T09:30:30.689Z,60411.10
2019-02-28T09:32:59.713Z,60424.31
2019-02-28T09:35:28.102Z,60389.76
2019-02-28T09:37:56.556Z,60373.50
2019-02-28T09:40:25.816Z,60386.71
2019-02-28T09:42:55.082Z,60397.89
2019-02-28T09:45:29.252Z,60392.80
2019-02-28T09:48:00.746Z,60391.79
2019-02-28T09:50:28.231Z,60383.66
2019-02-28T09:52:56.676Z,60424.31
2019-02-28T09:55:25.113Z,60392.80
2019-02-28T09:57:54.958Z,60364.35
2019-02-28T10:00:28.050Z,60380.61
2019-02-28T10:02:56.518Z,60378.58
2019-02-28T10:05:25.247Z,60370.45
2019-02-28T10:07:53.699Z,60362.32
2019-02-28T10:10:24.281Z,60355.21
2019-02-28T10:12:52.661Z,60367.40
2019-02-28T10:15:23.064Z,60370.45
2019-02-28T10:17:52.241Z,60368.42
2019-02-28T10:20:27.061Z,60346.06
2019-02-28T10:22:53.555Z,60342.00
2019-02-28T10:25:22.211Z,60339.96
2019-02-28T10:27:50.978Z,60333.87
2019-02-28T10:30:31.175Z,60358.25
2019-02-28T10:32:54.811Z,60342.00
2019-02-28T10:35:23.494Z,60338.95
2019-02-28T10:37:57.325Z,60332.85
2019-02-28T10:40:25.401Z,60347.08
2019-02-28T10:42:53.795Z,60328.79
2019-02-28T10:45:23.458Z,60324.72
2019-02-28T10:47:52.145Z,60338.95
2019-02-28T10:50:26.007Z,60331.84
2019-02-28T10:52:54.644Z,60335.90
2019-02-28T10:55:23.361Z,60312.53
2019-02-28T10:57:52.626Z,60351.14
2019-02-28T11:00:29.422Z,60334.88
2019-02-28T11:02:59.625Z,60321.67
2019-02-28T11:05:32.917Z,60319.64
2019-02-28T11:08:02.628Z,60342.00
2019-02-28T11:10:37.765Z,60320.66
2019-02-28T11:13:15.509Z,60324.72
2019-02-28T11:15:48.027Z,60342.00
2019-02-28T11:18:15.210Z,60316.59
2019-02-28T11:20:43.859Z,60333.87
2019-02-28T11:23:14.973Z,60344.03
2019-02-28T11:25:43.296Z,60322.69
2019-02-28T11:28:12.578Z,60338.95
2019-02-28T11:30:44.800Z,60326.75
2019-02-28T11:33:13.356Z,60326.75
2019-02-28T11:35:42.097Z,60331.84
2019-02-28T11:38:11.889Z,60301.35
2019-02-28T11:40:43.608Z,60320.66
2019-02-28T11:43:10.827Z,60316.59
2019-02-28T11:45:43.058Z,60329.80
2019-02-28T11:48:18.919Z,60296.27
2019-02-28T11:50:45.093Z,60304.40
2019-02-28T11:53:13.657Z,60312.53
2019-02-28T11:55:42.235Z,60297.29
2019-02-28T11:58:16.621Z,60322.69
2019-02-28T12:00:41.195Z,60331.84
2019-02-28T12:03:09.685Z,60302.37
2019-02-28T12:05:38.099Z,60312.53
2019-02-28T12:08:10.439Z,60312.53
2019-02-28T12:10:38.351Z,60316.59
2019-02-28T12:13:06.925Z,60281.03
2019-02-28T12:15:39.173Z,60313.54
2019-02-28T12:18:07.689Z,60313.54
2019-02-28T12:20:36.249Z,60309.48
2019-02-28T12:23:04.870Z,60318.62
2019-02-28T12:25:33.392Z,60314.56
2019-02-28T12:28:03.918Z,60328.79
2019-02-28T12:30:33.835Z,60289.16
2019-02-28T12:33:02.301Z,60291.19
2019-02-28T12:35:37.450Z,60305.41
2019-02-28T12:38:01.613Z,60308.46
2019-02-28T12:40:36.135Z,60310.50
2019-02-28T12:43:08.656Z,60321.67
2019-02-28T12:45:45.555Z,60303.38
2019-02-28T12:48:14.597Z,60329.80
2019-02-28T12:50:43.497Z,60321.67
2019-02-28T12:53:12.271Z,60308.46
2019-02-28T12:55:41.803Z,60326.75
2019-02-28T12:58:10.180Z,60330.82
2019-02-28T13:00:45.720Z,60342.00
2019-02-28T13:03:19.108Z,60331.84
2019-02-28T13:05:48.052Z,60310.50
2019-02-28T13:08:14.623Z,60334.88
2019-02-28T13:10:43.181Z,60323.71
2019-02-28T13:13:11.903Z,60335.90
2019-02-28T13:15:40.317Z,60349.11
2019-02-28T13:18:09.470Z,60355.21
2019-02-28T13:20:39.215Z,60335.90
2019-02-28T13:23:07.612Z,60318.62
2019-02-28T13:25:36.244Z,60331.84
2019-02-28T13:28:05.973Z,60347.08
2019-02-28T13:30:34.510Z,60361.30
2019-02-28T13:33:03.128Z,60333.87
2019-02-28T13:35:36.565Z,60339.96
2019-02-28T13:38:05.029Z,60346.06
2019-02-28T13:40:33.692Z,60327.77
2019-02-28T13:43:02.396Z,60377.56
2019-02-28T13:45:31.084Z,60352.16
2019-02-28T13:47:59.954Z,60356.22
2019-02-28T13:50:32.886Z,60340.98
2019-02-28T13:53:03.707Z,60355.21
2019-02-28T13:55:31.825Z,60344.03
2019-02-28T13:58:00.601Z,60327.77
2019-02-28T14:00:31.141Z,60349.11
2019-02-28T14:03:09.617Z,60350.12
2019-02-28T14:05:40.479Z,60340.98
2019-02-28T14:08:11.280Z,60376.55
2019-02-28T14:10:38.133Z,60351.14
2019-02-28T14:13:07.109Z,60351.14
2019-02-28T14:15:41.346Z,60392.80
2019-02-28T14:18:10.937Z,60366.39
2019-02-28T14:20:40.132Z,60340.98
2019-02-28T14:23:09.210Z,60342.00
2019-02-28T14:25:39.829Z,60363.34
2019-02-28T14:28:07.803Z,60375.53
2019-02-28T14:30:36.496Z,60363.34
2019-02-28T14:33:05.457Z,60355.21
2019-02-28T14:35:35.698Z,60374.52
2019-02-28T14:38:04.443Z,60377.56
2019-02-28T14:40:33.035Z,60344.03
2019-02-28T14:43:01.429Z,60367.40
2019-02-28T14:45:39.001Z,60371.46
2019-02-28T14:48:08.785Z,60352.16
2019-02-28T14:50:37.365Z,60366.39
2019-02-28T14:53:06.366Z,60366.39
2019-02-28T14:55:34.753Z,60367.40
2019-02-28T14:58:03.312Z,60358.25
2019-02-28T15:00:35.277Z,60343.01
2019-02-28T15:03:03.928Z,60352.16
2019-02-28T15:05:35.413Z,60350.12
2019-02-28T15:08:04.070Z,60374.52
2019-02-28T15:10:34.183Z,60365.37
2019-02-28T15:13:04.940Z,60355.21
2019-02-28T15:15:35.936Z,60379.59
2019-02-28T15:18:04.058Z,60358.25
2019-02-28T15:20:33.155Z,60365.37
2019-02-28T15:23:02.375Z,60360.29
2019-02-28T15:25:31.714Z,60366.39
2019-02-28T15:28:00.244Z,60368.42
2019-02-28T15:30:33.651Z,60374.52
2019-02-28T15:33:01.172Z,60382.64
2019-02-28T15:35:29.557Z,60381.63
2019-02-28T15:37:58.018Z,60368.42
2019-02-28T15:40:41.313Z,60340.98
2019-02-28T15:43:09.995Z,60358.25
2019-02-28T15:45:38.393Z,60391.79
2019-02-28T15:48:06.806Z,60361.30
2019-02-28T15:50:35.198Z,60385.69
2019-02-28T15:53:03.847Z,60376.55
2019-02-28T15:55:35.094Z,60364.35
2019-02-28T15:58:05.905Z,60383.66
2019-02-28T16:00:34.259Z,60349.11
2019-02-28T16:03:02.660Z,60381.63
2019-02-28T16:05:31.031Z,60370.45
2019-02-28T16:07:59.489Z,60359.27
2019-02-28T16:10:33.013Z,60360.29
2019-02-28T16:13:01.504Z,60370.45
2019-02-28T16:15:29.895Z,60354.19
2019-02-28T16:17:58.527Z,60376.55
2019-02-28T16:20:28.488Z,60394.84
2019-02-28T16:22:57.258Z,60352.16
2019-02-28T16:25:28.937Z,60346.06
2019-02-28T16:27:57.417Z,60388.74
2019-02-28T16:30:28.828Z,60336.91
2019-02-28T16:32:56.105Z,60377.56
2019-02-28T16:35:24.852Z,60363.34
2019-02-28T16:37:53.236Z,60359.27
2019-02-28T16:40:27.172Z,60391.79
2019-02-28T16:42:55.714Z,60356.22
2019-02-28T16:45:30.154Z,60369.43
2019-02-28T16:48:02.769Z,60339.96
2019-02-28T16:50:29.715Z,60392.80
2019-02-28T16:52:58.103Z,60364.35
2019-02-28T16:55:27.453Z,60367.40
2019-02-28T16:57:57.014Z,60346.06
2019-02-28T17:00:26.973Z,60354.19
2019-02-28T17:02:55.677Z,60372.48
2019-02-28T17:05:28.113Z,60382.64
2019-02-28T17:07:54.804Z,60349.11
2019-02-28T17:10:28.291Z,60385.69
2019-02-28T17:13:04.267Z,60367.40
2019-02-28T17:15:43.089Z,60394.84
2019-02-28T17:18:13.111Z,60359.27
2019-02-28T17:20:41.763Z,60381.63
2019-02-28T17:23:10.211Z,60352.16
2019-02-28T17:25:38.598Z,60370.45
2019-02-28T17:28:24.799Z,60355.21
2019-02-28T17:31:00.780Z,60361.30
2019-02-28T17:33:29.180Z,60397.89
2019-02-28T17:35:57.583Z,60376.55
2019-02-28T17:38:26.199Z,60360.29
2019-02-28T17:40:54.607Z,60377.56
2019-02-28T17:43:24.605Z,60415.16
2019-02-28T17:45:53.149Z,60356.22
2019-02-28T17:48:27.455Z,60380.61
2019-02-28T17:51:05.024Z,60391.79
2019-02-28T17:53:44.949Z,60405.00
2019-02-28T17:56:23.991Z,60376.55
2019-02-28T17:59:10.122Z,60387.72
2019-02-28T18:01:44.479Z,60368.42
2019-02-28T18:04:27.815Z,60387.72
2019-02-28T18:07:11.100Z,60383.66
2019-02-28T18:09:48.133Z,60383.66
2019-02-28T18:12:24.242Z,60371.46
2019-02-28T18:15:01.286Z,60386.71
2019-02-28T18:17:38.571Z,60396.87
2019-02-28T18:20:15.859Z,60363.34
2019-02-28T18:22:52.033Z,60356.22
2019-02-28T18:25:29.669Z,60377.56
2019-02-28T18:28:04.175Z,60375.53
2019-02-28T18:30:38.734Z,60379.59
2019-02-28T18:33:10.247Z,60375.53
2019-02-28T18:35:37.684Z,60359.27
2019-02-28T18:38:06.088Z,60366.39
2019-02-28T18:40:34.538Z,60364.35
2019-02-28T18:43:02.928Z,60350.12
2019-02-28T18:45:31.315Z,60360.29
2019-02-28T18:47:59.716Z,60374.52
2019-02-28T18:50:28.130Z,60354.19
2019-02-28T18:52:56.522Z,60399.92
2019-02-28T18:55:34.494Z,60392.80
2019-02-28T18:57:55.027Z,60358.25
2019-02-28T19:00:23.613Z,60405.00
2019-02-28T19:02:52.233Z,60365.37
2019-02-28T19:05:20.870Z,60405.00
2019-02-28T19:07:49.332Z,60395.86
2019-02-28T19:10:18.811Z,60367.40
2019-02-28T19:12:47.568Z,60349.11
2019-02-28T19:15:16.474Z,60372.48
2019-02-28T19:17:44.865Z,60375.53
2019-02-28T19:20:13.520Z,60358.25
2019-02-28T19:22:41.989Z,60398.90
2019-02-28T19:25:12.161Z,60362.32
2019-02-28T19:27:40.551Z,60391.79
2019-02-28T19:30:14.117Z,60377.56
2019-02-28T19:32:42.601Z,60378.58
2019-02-28T19:35:11.581Z,60377.56
2019-02-28T19:37:40.374Z,60360.29
2019-02-28T19:40:11.959Z,60395.86
2019-02-28T19:42:40.612Z,60378.58
2019-02-28T19:45:27.561Z,60395.86
2019-02-28T19:47:56.414Z,60374.52
2019-02-28T19:50:24.842Z,60398.90
2019-02-28T19:52:54.197Z,60385.69
2019-02-28T19:55:22.801Z,60390.77
2019-02-28T19:57:51.196Z,60386.71
2019-02-28T20:00:20.655Z,60379.59
2019-02-28T20:02:49.370Z,60396.87
2019-02-28T20:05:18.494Z,60387.72
2019-02-28T20:07:46.975Z,60393.82
2019-02-28T20:10:23.102Z,60403.98
2019-02-28T20:12:51.602Z,60391.79
2019-02-28T20:15:22.750Z,60400.93
2019-02-28T20:17:51.213Z,60399.92
2019-02-28T20:20:28.475Z,60397.89
2019-02-28T20:22:56.951Z,60406.02
2019-02-28T20:25:25.688Z,60371.46
2019-02-28T20:27:54.166Z,60415.16
2019-02-28T20:30:24.260Z,60396.87
2019-02-28T20:32:53.264Z,60398.90
2019-02-28T20:35:26.509Z,60403.98
2019-02-28T20:37:52.191Z,60402.97
2019-02-28T20:40:28.869Z,60385.69
2019-02-28T20:42:57.294Z,60387.72
2019-02-28T20:45:25.745Z,60399.92
2019-02-28T20:47:54.134Z,60398.90
2019-02-28T20:50:34.704Z,60374.52
2019-02-28T20:53:03.141Z,60374.52
2019-02-28T20:55:31.714Z,60400.93
2019-02-28T20:58:00.387Z,60417.20
2019-02-28T21:00:28.837Z,60419.23
2019-02-28T21:02:57.340Z,60409.07
2019-02-28T21:05:26.138Z,60405.00
2019-02-28T21:07:56.512Z,60395.86
2019-02-28T21:10:24.713Z,60396.87
2019-02-28T21:12:53.432Z,60413.13
2019-02-28T21:15:21.816Z,60418.21
2019-02-28T21:17:50.349Z,60376.55
2019-02-28T21:20:18.995Z,60400.93
2019-02-28T21:22:47.524Z,60395.86
2019-02-28T21:25:17.138Z,60433.45
2019-02-28T21:27:45.539Z,60380.61
2019-02-28T21:30:22.666Z,60393.82
2019-02-28T21:32:51.445Z,60398.90
2019-02-28T21:35:20.205Z,60417.20
2019-02-28T21:37:49.383Z,60417.20
2019-02-28T21:40:19.108Z,60389.76
2019-02-28T21:42:47.496Z,60383.66
2019-02-28T21:45:21.437Z,60403.98
2019-02-28T21:47:49.866Z,60413.13
2019-02-28T21:50:18.691Z,60399.92
2019-02-28T21:52:47.171Z,60398.90
2019-02-28T21:55:16.836Z,60398.90
2019-02-28T21:57:45.564Z,60366.39
2019-02-28T22:00:16.796Z,60391.79
2019-02-28T22:02:45.210Z,60375.53
2019-02-28T22:05:14.232Z,60422.27
2019-02-28T22:07:44.495Z,60408.05
2019-02-28T22:10:14.590Z,60396.87
2019-02-28T22:12:43.295Z,60378.58
2019-02-28T22:15:17.176Z,60423.29
2019-02-28T22:17:45.920Z,60423.29
2019-02-28T22:20:15.163Z,60408.05
2019-02-28T22:22:43.909Z,60420.24
2019-02-28T22:25:14.131Z,60400.93
2019-02-28T22:27:42.587Z,60395.86
2019-02-28T22:30:32.053Z,60395.86
2019-02-28T22:33:05.110Z,60420.24
2019-02-28T22:35:35.129Z,60414.14
2019-02-28T22:38:03.638Z,60397.89
2019-02-28T22:40:32.437Z,60432.44
2019-02-28T22:43:00.868Z,60428.37
2019-02-28T22:45:29.277Z,60428.37
2019-02-28T22:47:57.663Z,60429.39
2019-02-28T22:50:26.069Z,60421.26
2019-02-28T22:52:54.839Z,60417.20
2019-02-28T22:55:23.709Z,60428.37
2019-02-28T22:57:52.107Z,60428.37
2019-02-28T23:00:24.614Z,60414.14
2019-02-28T23:02:53.374Z,60401.95
2019-02-28T23:05:21.775Z,60436.50
2019-02-28T23:07:50.182Z,60403.98
2019-02-28T23:10:18.570Z,60433.45
2019-02-28T23:12:47.063Z,60438.53
2019-02-28T23:15:15.460Z,60438.53
2019-02-28T23:17:44.156Z,60418.21
2019-02-28T23:20:12.705Z,60427.36
2019-02-28T23:22:41.254Z,60414.14
2019-02-28T23:25:09.779Z,60414.14
2019-02-28T23:27:38.180Z,60428.37
2019-02-28T23:30:29.023Z,60414.14
2019-02-28T23:33:00.475Z,60414.14
2019-02-28T23:35:32.100Z,60427.36
2019-02-28T23:38:00.490Z,60392.80
2019-02-28T23:40:29.168Z,60406.02
2019-02-28T23:42:57.559Z,60410.08
2019-02-28T23:45:26.006Z,60410.08
2019-02-28T23:47:54.445Z,60433.45
2019-02-28T23:50:22.828Z,60419.23
2019-02-28T23:52:51.213Z,60420.24
2019-02-28T23:55:19.950Z,60420.24
2019-02-28T23:57:48.409Z,60415.16
